Harrow, United Kingdom

2:40 PM BST on October 01, 2016 (GMT +0100)
| | Change Station

Elev -9999 ft 0.00 °N, 0.00 °E | Updated

Rain
Rain
55 °F
Feels Like 55 °F
N
8
Wind Variable Wind from WSW
Gusts mph

Today
High -- | Low -- °F
--% Chance of Precip.
Yesterday
High -- | Low -- °F
Precip. -- in
Pressure 29.68 in
Visibility 6.2 miles
Clouds Scattered Clouds 1900 ft
Scattered Clouds 4300 ft
Dew Point 46 °F
Humidity 73%
Rainfall --
Snow Depth Not available.
7:02 AM 6:38 PM
New Moon, 0% visible
METAR EGLL 011320Z AUTO 25008KT 9999 SCT019 SCT043 15/10 Q1005 TEMPO SHRA
Pressure 29.68 in
Visibility 6.2 miles
Clouds Scattered Clouds 1900 ft
Scattered Clouds 4300 ft
Dew Point 46 °F
Humidity 73%
Rainfall --
Snow Depth Not available.
7:02 AM 6:38 PM
New Moon, 0% visible
METAR EGLL 011320Z AUTO 25008KT 9999 SCT019 SCT043 15/10 Q1005 TEMPO SHRA

10-Day Weather Forecast

×

Almanac

Astronomy

Oct. 01, 2016 Rise Set
Actual Time
Civil Twilight
Nautical Twilight
Astronomical Twilight
Moon
Length of Visible Light
Length of Day
Tomorrow will be .
, % of the Moon is Illuminated

Today's Extremes

Country Highs Country Lows

Community

WunderPhotos

Upload Photos

1,942,929 photos uploaded!

WunderBlog® & News

Nearby

Air Quality

  Air Quality AQ Index Pollutant
Not available.

Snow Depth

Station Depth Elevation

Earthquake Activity

City Distance Mag. Time & Date
Minimum magnitude displayed is 2.5.

Coastal Water Temperatures

Place Temperature

Stations

Nearby Weather Stations

Station Location Temp. Windchill Dew Point Humidity Wind Precip. Elev Updated Type